sensor_id;sensor_type;location;lat;lon;timestamp;P1;durP1;ratioP1;P2;durP2;ratioP2
6131;SDS011;3097;42.692;23.278;2022-10-17T00:00:20;21.40;;;11.70;;
6131;SDS011;3097;42.692;23.278;2022-10-17T00:02:45;28.83;;;12.40;;
6131;SDS011;3097;42.692;23.278;2022-10-17T00:05:11;23.70;;;12.80;;
6131;SDS011;3097;42.692;23.278;2022-10-17T00:07:37;23.00;;;12.33;;
6131;SDS011;3097;42.692;23.278;2022-10-17T00:10:03;20.40;;;11.33;;
6131;SDS011;3097;42.692;23.278;2022-10-17T00:12:29;22.37;;;12.23;;
6131;SDS011;3097;42.692;23.278;2022-10-17T00:14:55;19.97;;;10.67;;
6131;SDS011;3097;42.692;23.278;2022-10-17T00:17:20;20.20;;;11.33;;
6131;SDS011;3097;42.692;23.278;2022-10-17T00:19:46;19.30;;;10.80;;
6131;SDS011;3097;42.692;23.278;2022-10-17T00:22:11;19.73;;;11.27;;
6131;SDS011;3097;42.692;23.278;2022-10-17T00:24:37;24.70;;;11.67;;
6131;SDS011;3097;42.692;23.278;2022-10-17T00:27:02;22.97;;;12.00;;
6131;SDS011;3097;42.692;23.278;2022-10-17T00:29:28;20.53;;;11.60;;
6131;SDS011;3097;42.692;23.278;2022-10-17T00:31:54;23.47;;;11.77;;
6131;SDS011;3097;42.692;23.278;2022-10-17T00:34:21;21.20;;;11.43;;
6131;SDS011;3097;42.692;23.278;2022-10-17T00:36:47;18.60;;;10.63;;
6131;SDS011;3097;42.692;23.278;2022-10-17T00:39:12;21.37;;;11.33;;
6131;SDS011;3097;42.692;23.278;2022-10-17T00:41:38;19.23;;;10.17;;
6131;SDS011;3097;42.692;23.278;2022-10-17T00:44:04;20.70;;;10.23;;
6131;SDS011;3097;42.692;23.278;2022-10-17T00:46:33;20.63;;;10.67;;
6131;SDS011;3097;42.692;23.278;2022-10-17T00:49:05;18.07;;;10.23;;
6131;SDS011;3097;42.692;23.278;2022-10-17T00:51:35;17.40;;;9.80;;
6131;SDS011;3097;42.692;23.278;2022-10-17T00:54:11;15.73;;;9.73;;
6131;SDS011;3097;42.692;23.278;2022-10-17T00:56:38;15.50;;;9.33;;
6131;SDS011;3097;42.692;23.278;2022-10-17T00:59:04;16.77;;;9.07;;
6131;SDS011;3097;42.692;23.278;2022-10-17T01:01:33;13.37;;;8.60;;
6131;SDS011;3097;42.692;23.278;2022-10-17T01:03:59;17.63;;;9.53;;
6131;SDS011;3097;42.692;23.278;2022-10-17T01:06:24;14.13;;;8.60;;
6131;SDS011;3097;42.692;23.278;2022-10-17T01:08:50;16.77;;;9.17;;
6131;SDS011;3097;42.692;23.278;2022-10-17T01:14:06;15.10;;;8.47;;
6131;SDS011;3097;42.692;23.278;2022-10-17T01:16:42;13.80;;;8.00;;
6131;SDS011;3097;42.692;23.278;2022-10-17T01:21:54;17.30;;;9.10;;
6131;SDS011;3097;42.692;23.278;2022-10-17T01:32:22;14.50;;;8.17;;
6131;SDS011;3097;42.692;23.278;2022-10-17T01:34:54;14.90;;;8.77;;
6131;SDS011;3097;42.692;23.278;2022-10-17T01:37:29;12.93;;;8.93;;
6131;SDS011;3097;42.692;23.278;2022-10-17T01:40:06;18.60;;;9.03;;
6131;SDS011;3097;42.692;23.278;2022-10-17T01:45:20;19.27;;;10.93;;
6131;SDS011;3097;42.692;23.278;2022-10-17T01:48:04;18.40;;;10.73;;
6131;SDS011;3097;42.692;23.278;2022-10-17T01:50:35;20.23;;;10.93;;
6131;SDS011;3097;42.692;23.278;2022-10-17T01:53:10;23.27;;;11.40;;
6131;SDS011;3097;42.692;23.278;2022-10-17T01:55:40;22.27;;;11.67;;
6131;SDS011;3097;42.692;23.278;2022-10-17T01:58:10;21.90;;;12.20;;
6131;SDS011;3097;42.692;23.278;2022-10-17T02:00:39;18.80;;;11.47;;
6131;SDS011;3097;42.692;23.278;2022-10-17T02:03:07;24.00;;;11.80;;
6131;SDS011;3097;42.692;23.278;2022-10-17T02:05:38;27.03;;;12.10;;
6131;SDS011;3097;42.692;23.278;2022-10-17T02:08:06;21.80;;;11.53;;
6131;SDS011;3097;42.692;23.278;2022-10-17T02:10:39;20.47;;;11.83;;
6131;SDS011;3097;42.692;23.278;2022-10-17T02:13:26;21.00;;;11.97;;
6131;SDS011;3097;42.692;23.278;2022-10-17T02:19:01;17.77;;;11.30;;
6131;SDS011;3097;42.692;23.278;2022-10-17T02:30:11;19.67;;;11.27;;
6131;SDS011;3097;42.692;23.278;2022-10-17T02:32:52;23.63;;;11.63;;
6131;SDS011;3097;42.692;23.278;2022-10-17T02:35:23;18.63;;;10.77;;
6131;SDS011;3097;42.692;23.278;2022-10-17T02:37:51;22.73;;;11.97;;
6131;SDS011;3097;42.692;23.278;2022-10-17T02:40:17;21.53;;;12.33;;
6131;SDS011;3097;42.692;23.278;2022-10-17T02:42:46;19.30;;;11.77;;
6131;SDS011;3097;42.692;23.278;2022-10-17T02:45:13;20.97;;;12.30;;
6131;SDS011;3097;42.692;23.278;2022-10-17T02:47:43;23.60;;;12.63;;
6131;SDS011;3097;42.692;23.278;2022-10-17T02:50:18;23.70;;;12.17;;
6131;SDS011;3097;42.692;23.278;2022-10-17T02:52:52;24.57;;;13.30;;
6131;SDS011;3097;42.692;23.278;2022-10-17T02:55:24;32.10;;;13.53;;
6131;SDS011;3097;42.692;23.278;2022-10-17T02:57:57;28.53;;;13.27;;
6131;SDS011;3097;42.692;23.278;2022-10-17T03:00:27;28.03;;;14.23;;
6131;SDS011;3097;42.692;23.278;2022-10-17T03:02:54;28.90;;;13.97;;
6131;SDS011;3097;42.692;23.278;2022-10-17T03:05:23;27.83;;;14.33;;
6131;SDS011;3097;42.692;23.278;2022-10-17T03:07:50;27.67;;;14.13;;
6131;SDS011;3097;42.692;23.278;2022-10-17T03:10:16;30.97;;;16.03;;
6131;SDS011;3097;42.692;23.278;2022-10-17T03:12:42;28.67;;;16.37;;
6131;SDS011;3097;42.692;23.278;2022-10-17T03:15:07;35.73;;;17.50;;
6131;SDS011;3097;42.692;23.278;2022-10-17T03:17:33;39.30;;;18.83;;
6131;SDS011;3097;42.692;23.278;2022-10-17T03:19:59;36.97;;;17.90;;
6131;SDS011;3097;42.692;23.278;2022-10-17T03:22:25;35.60;;;18.13;;
6131;SDS011;3097;42.692;23.278;2022-10-17T03:24:50;40.43;;;19.63;;
6131;SDS011;3097;42.692;23.278;2022-10-17T03:27:16;44.60;;;20.73;;
6131;SDS011;3097;42.692;23.278;2022-10-17T03:29:41;44.00;;;21.63;;
6131;SDS011;3097;42.692;23.278;2022-10-17T03:32:07;64.67;;;27.77;;
6131;SDS011;3097;42.692;23.278;2022-10-17T03:34:32;57.57;;;28.13;;
6131;SDS011;3097;42.692;23.278;2022-10-17T03:36:58;67.30;;;29.90;;
6131;SDS011;3097;42.692;23.278;2022-10-17T03:39:23;68.77;;;28.20;;
6131;SDS011;3097;42.692;23.278;2022-10-17T03:41:49;58.83;;;26.37;;
6131;SDS011;3097;42.692;23.278;2022-10-17T03:44:14;47.47;;;22.33;;
6131;SDS011;3097;42.692;23.278;2022-10-17T03:46:40;45.03;;;20.07;;
6131;SDS011;3097;42.692;23.278;2022-10-17T03:49:05;38.90;;;18.83;;
6131;SDS011;3097;42.692;23.278;2022-10-17T03:51:33;33.67;;;17.63;;
6131;SDS011;3097;42.692;23.278;2022-10-17T03:53:59;34.47;;;17.50;;
6131;SDS011;3097;42.692;23.278;2022-10-17T03:56:25;36.07;;;17.20;;
6131;SDS011;3097;42.692;23.278;2022-10-17T03:58:50;39.27;;;17.03;;
6131;SDS011;3097;42.692;23.278;2022-10-17T04:01:17;33.83;;;16.40;;
6131;SDS011;3097;42.692;23.278;2022-10-17T04:03:43;31.27;;;16.67;;
6131;SDS011;3097;42.692;23.278;2022-10-17T04:06:12;36.07;;;16.27;;
6131;SDS011;3097;42.692;23.278;2022-10-17T04:08:38;33.50;;;16.63;;
6131;SDS011;3097;42.692;23.278;2022-10-17T04:11:05;36.47;;;18.17;;
6131;SDS011;3097;42.692;23.278;2022-10-17T04:13:32;36.20;;;17.83;;
6131;SDS011;3097;42.692;23.278;2022-10-17T04:15:59;35.93;;;16.83;;
6131;SDS011;3097;42.692;23.278;2022-10-17T04:18:26;42.73;;;18.93;;
6131;SDS011;3097;42.692;23.278;2022-10-17T04:20:51;37.57;;;18.23;;
6131;SDS011;3097;42.692;23.278;2022-10-17T04:23:17;35.63;;;18.60;;
6131;SDS011;3097;42.692;23.278;2022-10-17T04:25:43;33.50;;;18.07;;
6131;SDS011;3097;42.692;23.278;2022-10-17T04:28:08;44.50;;;21.10;;
6131;SDS011;3097;42.692;23.278;2022-10-17T04:30:34;41.67;;;21.20;;
6131;SDS011;3097;42.692;23.278;2022-10-17T04:33:00;46.57;;;20.87;;
6131;SDS011;3097;42.692;23.278;2022-10-17T04:35:26;43.97;;;20.53;;
6131;SDS011;3097;42.692;23.278;2022-10-17T04:37:51;37.77;;;20.30;;
6131;SDS011;3097;42.692;23.278;2022-10-17T04:40:17;41.13;;;20.23;;
6131;SDS011;3097;42.692;23.278;2022-10-17T04:42:42;39.23;;;20.63;;
6131;SDS011;3097;42.692;23.278;2022-10-17T04:45:08;43.60;;;21.77;;
6131;SDS011;3097;42.692;23.278;2022-10-17T04:47:33;50.80;;;24.67;;
6131;SDS011;3097;42.692;23.278;2022-10-17T04:49:59;50.37;;;23.23;;
6131;SDS011;3097;42.692;23.278;2022-10-17T04:52:25;45.27;;;23.17;;
6131;SDS011;3097;42.692;23.278;2022-10-17T04:54:50;48.97;;;22.23;;
6131;SDS011;3097;42.692;23.278;2022-10-17T04:57:16;45.97;;;21.23;;
6131;SDS011;3097;42.692;23.278;2022-10-17T04:59:42;41.07;;;20.37;;
6131;SDS011;3097;42.692;23.278;2022-10-17T05:02:08;44.83;;;20.73;;
6131;SDS011;3097;42.692;23.278;2022-10-17T05:04:33;40.40;;;20.17;;
6131;SDS011;3097;42.692;23.278;2022-10-17T05:06:59;42.07;;;19.00;;
6131;SDS011;3097;42.692;23.278;2022-10-17T05:09:24;36.70;;;19.53;;
6131;SDS011;3097;42.692;23.278;2022-10-17T05:11:49;43.20;;;19.90;;
6131;SDS011;3097;42.692;23.278;2022-10-17T05:14:15;40.97;;;18.63;;
6131;SDS011;3097;42.692;23.278;2022-10-17T05:16:40;40.23;;;17.87;;
6131;SDS011;3097;42.692;23.278;2022-10-17T05:19:06;34.50;;;17.43;;
6131;SDS011;3097;42.692;23.278;2022-10-17T05:21:31;34.67;;;16.10;;
6131;SDS011;3097;42.692;23.278;2022-10-17T05:23:57;39.67;;;17.27;;
6131;SDS011;3097;42.692;23.278;2022-10-17T05:26:23;37.47;;;18.03;;
6131;SDS011;3097;42.692;23.278;2022-10-17T05:28:49;36.57;;;17.80;;
6131;SDS011;3097;42.692;23.278;2022-10-17T05:31:16;36.13;;;18.40;;
6131;SDS011;3097;42.692;23.278;2022-10-17T05:33:42;37.97;;;18.73;;
6131;SDS011;3097;42.692;23.278;2022-10-17T05:36:07;43.93;;;18.50;;
6131;SDS011;3097;42.692;23.278;2022-10-17T05:38:33;36.67;;;17.67;;
6131;SDS011;3097;42.692;23.278;2022-10-17T05:40:59;38.73;;;17.93;;
6131;SDS011;3097;42.692;23.278;2022-10-17T05:43:27;29.77;;;14.93;;
6131;SDS011;3097;42.692;23.278;2022-10-17T05:45:53;27.63;;;14.07;;
6131;SDS011;3097;42.692;23.278;2022-10-17T05:48:19;27.27;;;13.57;;
6131;SDS011;3097;42.692;23.278;2022-10-17T05:50:45;27.03;;;14.57;;
6131;SDS011;3097;42.692;23.278;2022-10-17T05:53:10;31.33;;;13.53;;
6131;SDS011;3097;42.692;23.278;2022-10-17T05:55:36;27.63;;;13.77;;
6131;SDS011;3097;42.692;23.278;2022-10-17T05:58:02;27.37;;;13.37;;
6131;SDS011;3097;42.692;23.278;2022-10-17T06:00:27;24.80;;;13.30;;
6131;SDS011;3097;42.692;23.278;2022-10-17T06:02:53;28.83;;;14.40;;
6131;SDS011;3097;42.692;23.278;2022-10-17T06:05:18;27.87;;;13.90;;
6131;SDS011;3097;42.692;23.278;2022-10-17T06:07:45;23.43;;;13.00;;
6131;SDS011;3097;42.692;23.278;2022-10-17T06:10:10;25.87;;;13.07;;
6131;SDS011;3097;42.692;23.278;2022-10-17T06:12:41;21.47;;;12.67;;
6131;SDS011;3097;42.692;23.278;2022-10-17T06:15:07;11.63;;;8.47;;
6131;SDS011;3097;42.692;23.278;2022-10-17T06:17:33;11.40;;;8.07;;
6131;SDS011;3097;42.692;23.278;2022-10-17T06:19:59;12.87;;;8.63;;
6131;SDS011;3097;42.692;23.278;2022-10-17T06:22:25;12.93;;;8.57;;
6131;SDS011;3097;42.692;23.278;2022-10-17T06:24:50;12.70;;;8.87;;
6131;SDS011;3097;42.692;23.278;2022-10-17T06:27:17;18.27;;;9.50;;
6131;SDS011;3097;42.692;23.278;2022-10-17T06:29:43;14.23;;;9.70;;
6131;SDS011;3097;42.692;23.278;2022-10-17T06:32:09;16.90;;;9.00;;
6131;SDS011;3097;42.692;23.278;2022-10-17T06:34:34;14.13;;;9.80;;
6131;SDS011;3097;42.692;23.278;2022-10-17T06:37:00;15.77;;;10.23;;
6131;SDS011;3097;42.692;23.278;2022-10-17T06:39:25;17.70;;;10.17;;
6131;SDS011;3097;42.692;23.278;2022-10-17T06:41:58;18.47;;;11.00;;
6131;SDS011;3097;42.692;23.278;2022-10-17T06:44:24;19.70;;;11.83;;
6131;SDS011;3097;42.692;23.278;2022-10-17T06:46:54;18.13;;;11.47;;
6131;SDS011;3097;42.692;23.278;2022-10-17T06:49:20;20.77;;;11.17;;
6131;SDS011;3097;42.692;23.278;2022-10-17T06:51:45;20.50;;;10.90;;
6131;SDS011;3097;42.692;23.278;2022-10-17T06:54:11;14.73;;;10.10;;
6131;SDS011;3097;42.692;23.278;2022-10-17T06:56:36;18.97;;;11.27;;
6131;SDS011;3097;42.692;23.278;2022-10-17T06:59:01;13.33;;;11.00;;
6131;SDS011;3097;42.692;23.278;2022-10-17T07:01:27;17.03;;;11.63;;
6131;SDS011;3097;42.692;23.278;2022-10-17T07:03:54;14.57;;;11.47;;
6131;SDS011;3097;42.692;23.278;2022-10-17T07:06:19;14.20;;;11.80;;
6131;SDS011;3097;42.692;23.278;2022-10-17T07:08:44;16.13;;;12.43;;
6131;SDS011;3097;42.692;23.278;2022-10-17T07:11:14;14.47;;;12.03;;
6131;SDS011;3097;42.692;23.278;2022-10-17T07:13:43;15.17;;;12.53;;
6131;SDS011;3097;42.692;23.278;2022-10-17T07:16:08;20.60;;;15.13;;
6131;SDS011;3097;42.692;23.278;2022-10-17T07:18:34;18.70;;;13.03;;
6131;SDS011;3097;42.692;23.278;2022-10-17T07:21:00;20.00;;;13.47;;
6131;SDS011;3097;42.692;23.278;2022-10-17T07:23:25;14.67;;;12.60;;
6131;SDS011;3097;42.692;23.278;2022-10-17T07:25:51;19.13;;;13.20;;
6131;SDS011;3097;42.692;23.278;2022-10-17T07:28:17;17.80;;;12.80;;
6131;SDS011;3097;42.692;23.278;2022-10-17T07:30:43;16.17;;;12.80;;
6131;SDS011;3097;42.692;23.278;2022-10-17T07:33:09;18.23;;;13.50;;
6131;SDS011;3097;42.692;23.278;2022-10-17T07:35:36;18.07;;;13.67;;
6131;SDS011;3097;42.692;23.278;2022-10-17T07:38:04;18.87;;;13.57;;
6131;SDS011;3097;42.692;23.278;2022-10-17T07:40:30;19.80;;;14.20;;
6131;SDS011;3097;42.692;23.278;2022-10-17T07:42:56;19.37;;;13.60;;
6131;SDS011;3097;42.692;23.278;2022-10-17T07:45:21;19.53;;;13.87;;
6131;SDS011;3097;42.692;23.278;2022-10-17T07:47:48;18.07;;;14.53;;
6131;SDS011;3097;42.692;23.278;2022-10-17T07:50:13;20.73;;;14.57;;
6131;SDS011;3097;42.692;23.278;2022-10-17T07:52:39;22.03;;;15.40;;
6131;SDS011;3097;42.692;23.278;2022-10-17T07:55:07;19.33;;;15.37;;
6131;SDS011;3097;42.692;23.278;2022-10-17T07:57:33;21.60;;;15.93;;
6131;SDS011;3097;42.692;23.278;2022-10-17T07:59:59;21.23;;;14.90;;
6131;SDS011;3097;42.692;23.278;2022-10-17T08:02:24;21.87;;;15.40;;
6131;SDS011;3097;42.692;23.278;2022-10-17T08:04:51;21.47;;;15.57;;
6131;SDS011;3097;42.692;23.278;2022-10-17T08:07:17;23.60;;;14.80;;
6131;SDS011;3097;42.692;23.278;2022-10-17T08:09:44;20.93;;;14.93;;
6131;SDS011;3097;42.692;23.278;2022-10-17T08:12:10;21.17;;;15.70;;
6131;SDS011;3097;42.692;23.278;2022-10-17T08:14:36;23.23;;;15.53;;
6131;SDS011;3097;42.692;23.278;2022-10-17T08:17:03;21.27;;;14.53;;
6131;SDS011;3097;42.692;23.278;2022-10-17T08:19:28;21.23;;;15.07;;
6131;SDS011;3097;42.692;23.278;2022-10-17T08:21:54;19.77;;;15.20;;
6131;SDS011;3097;42.692;23.278;2022-10-17T08:24:19;22.93;;;14.40;;
6131;SDS011;3097;42.692;23.278;2022-10-17T08:26:45;21.87;;;14.13;;
6131;SDS011;3097;42.692;23.278;2022-10-17T08:29:13;23.17;;;14.83;;
6131;SDS011;3097;42.692;23.278;2022-10-17T08:31:40;18.73;;;14.10;;
6131;SDS011;3097;42.692;23.278;2022-10-17T08:34:05;17.23;;;13.77;;
6131;SDS011;3097;42.692;23.278;2022-10-17T08:36:31;20.93;;;13.63;;
6131;SDS011;3097;42.692;23.278;2022-10-17T08:38:56;20.00;;;14.10;;
6131;SDS011;3097;42.692;23.278;2022-10-17T08:44:07;23.07;;;15.13;;
6131;SDS011;3097;42.692;23.278;2022-10-17T08:46:52;23.00;;;13.33;;
6131;SDS011;3097;42.692;23.278;2022-10-17T08:50:10;17.63;;;14.17;;
6131;SDS011;3097;42.692;23.278;2022-10-17T08:52:15;19.73;;;13.70;;
6131;SDS011;3097;42.692;23.278;2022-10-17T08:54:50;19.50;;;13.33;;
6131;SDS011;3097;42.692;23.278;2022-10-17T08:57:16;17.37;;;13.60;;
6131;SDS011;3097;42.692;23.278;2022-10-17T08:59:42;19.17;;;13.93;;
6131;SDS011;3097;42.692;23.278;2022-10-17T09:04:50;21.00;;;13.60;;
6131;SDS011;3097;42.692;23.278;2022-10-17T09:18:10;13.53;;;9.90;;
6131;SDS011;3097;42.692;23.278;2022-10-17T09:20:49;9.37;;;8.17;;
6131;SDS011;3097;42.692;23.278;2022-10-17T09:23:21;9.33;;;7.37;;
6131;SDS011;3097;42.692;23.278;2022-10-17T09:25:51;11.87;;;8.90;;
6131;SDS011;3097;42.692;23.278;2022-10-17T09:28:27;20.13;;;12.30;;
6131;SDS011;3097;42.692;23.278;2022-10-17T09:31:00;8.33;;;7.10;;
6131;SDS011;3097;42.692;23.278;2022-10-17T09:33:31;7.67;;;6.97;;
6131;SDS011;3097;42.692;23.278;2022-10-17T09:36:03;6.43;;;5.83;;
6131;SDS011;3097;42.692;23.278;2022-10-17T09:38:38;8.17;;;6.07;;
6131;SDS011;3097;42.692;23.278;2022-10-17T09:41:12;7.40;;;6.47;;
6131;SDS011;3097;42.692;23.278;2022-10-17T09:43:42;7.17;;;5.57;;
6131;SDS011;3097;42.692;23.278;2022-10-17T09:49:00;6.57;;;5.80;;
6131;SDS011;3097;42.692;23.278;2022-10-17T09:51:42;5.90;;;5.33;;
6131;SDS011;3097;42.692;23.278;2022-10-17T09:54:18;9.03;;;6.37;;
6131;SDS011;3097;42.692;23.278;2022-10-17T09:56:56;6.10;;;5.50;;
6131;SDS011;3097;42.692;23.278;2022-10-17T09:59:31;6.17;;;5.57;;
6131;SDS011;3097;42.692;23.278;2022-10-17T10:02:06;7.47;;;5.73;;
6131;SDS011;3097;42.692;23.278;2022-10-17T10:04:34;6.50;;;5.40;;
6131;SDS011;3097;42.692;23.278;2022-10-17T10:07:00;5.67;;;5.17;;
6131;SDS011;3097;42.692;23.278;2022-10-17T10:09:32;5.03;;;4.53;;
6131;SDS011;3097;42.692;23.278;2022-10-17T10:12:00;5.23;;;4.40;;
6131;SDS011;3097;42.692;23.278;2022-10-17T10:14:31;5.00;;;4.50;;
6131;SDS011;3097;42.692;23.278;2022-10-17T10:17:02;4.23;;;3.70;;
6131;SDS011;3097;42.692;23.278;2022-10-17T10:19:37;4.40;;;4.00;;
6131;SDS011;3097;42.692;23.278;2022-10-17T10:22:04;3.13;;;2.90;;
6131;SDS011;3097;42.692;23.278;2022-10-17T10:24:37;6.53;;;3.50;;
6131;SDS011;3097;42.692;23.278;2022-10-17T10:27:03;3.33;;;3.13;;
6131;SDS011;3097;42.692;23.278;2022-10-17T10:29:41;3.70;;;3.40;;
6131;SDS011;3097;42.692;23.278;2022-10-17T10:32:24;3.77;;;3.47;;
6131;SDS011;3097;42.692;23.278;2022-10-17T10:37:22;3.77;;;3.10;;
6131;SDS011;3097;42.692;23.278;2022-10-17T10:39:57;2.90;;;2.70;;
6131;SDS011;3097;42.692;23.278;2022-10-17T10:42:27;3.30;;;3.00;;
6131;SDS011;3097;42.692;23.278;2022-10-17T10:50:51;3.37;;;3.07;;
6131;SDS011;3097;42.692;23.278;2022-10-17T10:53:26;3.90;;;3.03;;
6131;SDS011;3097;42.692;23.278;2022-10-17T10:56:00;3.13;;;2.90;;
6131;SDS011;3097;42.692;23.278;2022-10-17T11:00:59;3.20;;;2.90;;
6131;SDS011;3097;42.692;23.278;2022-10-17T11:03:31;3.53;;;3.23;;
6131;SDS011;3097;42.692;23.278;2022-10-17T11:06:03;3.37;;;3.17;;
6131;SDS011;3097;42.692;23.278;2022-10-17T11:08:40;3.73;;;3.43;;
6131;SDS011;3097;42.692;23.278;2022-10-17T11:13:47;3.70;;;3.40;;
6131;SDS011;3097;42.692;23.278;2022-10-17T11:16:22;3.03;;;2.83;;
6131;SDS011;3097;42.692;23.278;2022-10-17T11:21:38;3.17;;;2.97;;
6131;SDS011;3097;42.692;23.278;2022-10-17T11:24:32;3.27;;;3.07;;
6131;SDS011;3097;42.692;23.278;2022-10-17T11:27:06;2.70;;;2.50;;
6131;SDS011;3097;42.692;23.278;2022-10-17T11:29:37;3.63;;;3.33;;
6131;SDS011;3097;42.692;23.278;2022-10-17T11:32:27;4.00;;;3.30;;
6131;SDS011;3097;42.692;23.278;2022-10-17T11:35:25;3.40;;;2.70;;
6131;SDS011;3097;42.692;23.278;2022-10-17T11:38:15;2.87;;;2.67;;
6131;SDS011;3097;42.692;23.278;2022-10-17T11:40:44;3.50;;;3.20;;
6131;SDS011;3097;42.692;23.278;2022-10-17T11:43:37;3.63;;;2.90;;
6131;SDS011;3097;42.692;23.278;2022-10-17T11:48:38;3.40;;;3.20;;
6131;SDS011;3097;42.692;23.278;2022-10-17T11:51:07;2.97;;;2.77;;
6131;SDS011;3097;42.692;23.278;2022-10-17T11:56:07;5.70;;;3.10;;
6131;SDS011;3097;42.692;23.278;2022-10-17T11:58:40;3.00;;;2.80;;
6131;SDS011;3097;42.692;23.278;2022-10-17T12:06:45;6.00;;;3.00;;
6131;SDS011;3097;42.692;23.278;2022-10-17T12:12:06;3.47;;;3.07;;
6131;SDS011;3097;42.692;23.278;2022-10-17T12:16:57;2.77;;;2.57;;
6131;SDS011;3097;42.692;23.278;2022-10-17T12:19:25;3.33;;;3.03;;
6131;SDS011;3097;42.692;23.278;2022-10-17T12:24:53;3.53;;;3.23;;
6131;SDS011;3097;42.692;23.278;2022-10-17T12:30:02;4.70;;;3.30;;
6131;SDS011;3097;42.692;23.278;2022-10-17T12:32:31;3.03;;;2.83;;
6131;SDS011;3097;42.692;23.278;2022-10-17T12:34:57;3.40;;;3.10;;
6131;SDS011;3097;42.692;23.278;2022-10-17T12:38:24;3.27;;;3.07;;
6131;SDS011;3097;42.692;23.278;2022-10-17T12:42:58;5.80;;;3.40;;
6131;SDS011;3097;42.692;23.278;2022-10-17T12:53:32;3.00;;;2.77;;
6131;SDS011;3097;42.692;23.278;2022-10-17T12:56:08;3.10;;;2.90;;
6131;SDS011;3097;42.692;23.278;2022-10-17T12:58:34;3.33;;;3.13;;
6131;SDS011;3097;42.692;23.278;2022-10-17T13:01:00;3.27;;;2.97;;
6131;SDS011;3097;42.692;23.278;2022-10-17T13:03:33;4.23;;;3.20;;
6131;SDS011;3097;42.692;23.278;2022-10-17T13:06:11;6.53;;;4.80;;
6131;SDS011;3097;42.692;23.278;2022-10-17T13:08:43;3.67;;;3.37;;
6131;SDS011;3097;42.692;23.278;2022-10-17T13:11:11;3.50;;;3.20;;
6131;SDS011;3097;42.692;23.278;2022-10-17T13:13:41;3.77;;;3.23;;
6131;SDS011;3097;42.692;23.278;2022-10-17T13:16:07;2.53;;;2.43;;
6131;SDS011;3097;42.692;23.278;2022-10-17T13:18:33;3.00;;;2.80;;
6131;SDS011;3097;42.692;23.278;2022-10-17T13:21:00;3.00;;;2.80;;
6131;SDS011;3097;42.692;23.278;2022-10-17T13:23:30;3.63;;;3.33;;
6131;SDS011;3097;42.692;23.278;2022-10-17T13:26:04;3.63;;;2.77;;
6131;SDS011;3097;42.692;23.278;2022-10-17T13:28:35;3.20;;;2.90;;
6131;SDS011;3097;42.692;23.278;2022-10-17T13:31:01;3.90;;;3.60;;
6131;SDS011;3097;42.692;23.278;2022-10-17T13:33:28;3.07;;;2.87;;
6131;SDS011;3097;42.692;23.278;2022-10-17T13:35:57;3.60;;;3.30;;
6131;SDS011;3097;42.692;23.278;2022-10-17T13:38:25;3.33;;;2.60;;
6131;SDS011;3097;42.692;23.278;2022-10-17T13:40:52;3.10;;;2.90;;
6131;SDS011;3097;42.692;23.278;2022-10-17T13:43:19;3.03;;;2.83;;
6131;SDS011;3097;42.692;23.278;2022-10-17T13:45:52;3.27;;;3.07;;
6131;SDS011;3097;42.692;23.278;2022-10-17T13:48:21;3.20;;;3.00;;
6131;SDS011;3097;42.692;23.278;2022-10-17T13:50:49;3.23;;;3.03;;
6131;SDS011;3097;42.692;23.278;2022-10-17T13:58:19;3.37;;;3.13;;
6131;SDS011;3097;42.692;23.278;2022-10-17T14:00:45;3.77;;;3.47;;
6131;SDS011;3097;42.692;23.278;2022-10-17T14:03:13;7.10;;;2.83;;
6131;SDS011;3097;42.692;23.278;2022-10-17T14:08:33;3.37;;;3.07;;
6131;SDS011;3097;42.692;23.278;2022-10-17T14:11:00;4.83;;;3.30;;
6131;SDS011;3097;42.692;23.278;2022-10-17T14:13:28;3.80;;;3.50;;
6131;SDS011;3097;42.692;23.278;2022-10-17T14:15:58;3.73;;;3.43;;
6131;SDS011;3097;42.692;23.278;2022-10-17T14:18:26;3.60;;;3.07;;
6131;SDS011;3097;42.692;23.278;2022-10-17T14:20:58;6.03;;;3.43;;
6131;SDS011;3097;42.692;23.278;2022-10-17T14:23:32;3.90;;;3.60;;
6131;SDS011;3097;42.692;23.278;2022-10-17T14:26:16;3.80;;;3.50;;
6131;SDS011;3097;42.692;23.278;2022-10-17T14:28:44;4.13;;;3.37;;
6131;SDS011;3097;42.692;23.278;2022-10-17T14:31:20;3.87;;;3.57;;
6131;SDS011;3097;42.692;23.278;2022-10-17T14:33:49;4.20;;;3.77;;
6131;SDS011;3097;42.692;23.278;2022-10-17T14:36:17;4.30;;;3.90;;
6131;SDS011;3097;42.692;23.278;2022-10-17T14:38:44;4.47;;;4.03;;
6131;SDS011;3097;42.692;23.278;2022-10-17T14:41:19;3.57;;;3.37;;
6131;SDS011;3097;42.692;23.278;2022-10-17T14:43:50;4.23;;;3.93;;
6131;SDS011;3097;42.692;23.278;2022-10-17T14:46:18;4.30;;;4.00;;
6131;SDS011;3097;42.692;23.278;2022-10-17T14:48:44;3.80;;;3.50;;
6131;SDS011;3097;42.692;23.278;2022-10-17T14:51:15;4.73;;;3.97;;
6131;SDS011;3097;42.692;23.278;2022-10-17T14:53:42;4.47;;;4.17;;
6131;SDS011;3097;42.692;23.278;2022-10-17T14:56:24;4.30;;;3.93;;
6131;SDS011;3097;42.692;23.278;2022-10-17T14:58:58;5.80;;;4.60;;
6131;SDS011;3097;42.692;23.278;2022-10-17T15:01:24;7.70;;;4.43;;
6131;SDS011;3097;42.692;23.278;2022-10-17T15:03:49;4.73;;;4.33;;
6131;SDS011;3097;42.692;23.278;2022-10-17T15:06:19;5.73;;;4.50;;
6131;SDS011;3097;42.692;23.278;2022-10-17T15:08:46;4.30;;;3.90;;
6131;SDS011;3097;42.692;23.278;2022-10-17T15:11:12;4.60;;;4.20;;
6131;SDS011;3097;42.692;23.278;2022-10-17T15:13:39;4.57;;;4.27;;
6131;SDS011;3097;42.692;23.278;2022-10-17T15:18:50;4.43;;;3.70;;
6131;SDS011;3097;42.692;23.278;2022-10-17T15:21:18;4.70;;;4.17;;
6131;SDS011;3097;42.692;23.278;2022-10-17T15:23:45;5.63;;;3.80;;
6131;SDS011;3097;42.692;23.278;2022-10-17T15:26:12;5.57;;;4.87;;
6131;SDS011;3097;42.692;23.278;2022-10-17T15:28:39;4.03;;;3.63;;
6131;SDS011;3097;42.692;23.278;2022-10-17T15:31:04;5.57;;;5.07;;
6131;SDS011;3097;42.692;23.278;2022-10-17T15:33:30;5.13;;;4.70;;
6131;SDS011;3097;42.692;23.278;2022-10-17T15:35:55;5.20;;;4.70;;
6131;SDS011;3097;42.692;23.278;2022-10-17T15:38:24;17.67;;;10.47;;
6131;SDS011;3097;42.692;23.278;2022-10-17T15:40:49;5.53;;;5.03;;
6131;SDS011;3097;42.692;23.278;2022-10-17T15:43:16;5.97;;;5.17;;
6131;SDS011;3097;42.692;23.278;2022-10-17T15:45:41;6.80;;;5.10;;
6131;SDS011;3097;42.692;23.278;2022-10-17T15:48:06;12.80;;;8.63;;
6131;SDS011;3097;42.692;23.278;2022-10-17T15:50:52;8.53;;;5.93;;
6131;SDS011;3097;42.692;23.278;2022-10-17T15:53:17;7.93;;;6.80;;
6131;SDS011;3097;42.692;23.278;2022-10-17T15:55:43;9.37;;;6.10;;
6131;SDS011;3097;42.692;23.278;2022-10-17T15:58:13;5.73;;;5.23;;
6131;SDS011;3097;42.692;23.278;2022-10-17T16:00:40;5.43;;;4.93;;
6131;SDS011;3097;42.692;23.278;2022-10-17T16:03:05;10.63;;;7.70;;
6131;SDS011;3097;42.692;23.278;2022-10-17T16:05:31;7.97;;;5.60;;
6131;SDS011;3097;42.692;23.278;2022-10-17T16:07:57;13.13;;;8.97;;
6131;SDS011;3097;42.692;23.278;2022-10-17T16:10:23;23.40;;;13.73;;
6131;SDS011;3097;42.692;23.278;2022-10-17T16:12:50;12.70;;;8.20;;
6131;SDS011;3097;42.692;23.278;2022-10-17T16:17:49;9.67;;;6.43;;
6131;SDS011;3097;42.692;23.278;2022-10-17T16:20:16;8.70;;;6.73;;
6131;SDS011;3097;42.692;23.278;2022-10-17T16:22:43;5.97;;;5.43;;
6131;SDS011;3097;42.692;23.278;2022-10-17T16:25:30;6.17;;;5.67;;
6131;SDS011;3097;42.692;23.278;2022-10-17T16:27:56;6.80;;;5.70;;
6131;SDS011;3097;42.692;23.278;2022-10-17T16:30:24;24.27;;;14.57;;
6131;SDS011;3097;42.692;23.278;2022-10-17T16:32:51;12.40;;;7.83;;
6131;SDS011;3097;42.692;23.278;2022-10-17T16:35:21;7.57;;;6.70;;
6131;SDS011;3097;42.692;23.278;2022-10-17T16:37:48;82.57;;;35.57;;
6131;SDS011;3097;42.692;23.278;2022-10-17T16:40:14;21.23;;;11.13;;
6131;SDS011;3097;42.692;23.278;2022-10-17T16:42:40;20.17;;;10.37;;